createdAt,value
2023-08-17T00:01:36.445Z,100588.44
2023-08-17T00:04:03.307Z,100591.88
2023-08-17T00:06:30.082Z,100592.30
2023-08-17T00:08:57.228Z,100587.36
2023-08-17T00:11:24.196Z,100583.70
2023-08-17T00:13:51.266Z,100586.60
2023-08-17T00:16:18.282Z,100583.27
2023-08-17T00:18:45.198Z,100581.05
2023-08-17T00:21:11.821Z,100582.64
2023-08-17T00:23:38.458Z,100579.22
2023-08-17T00:26:05.085Z,100582.94
2023-08-17T00:28:31.721Z,100582.39
2023-08-17T00:31:00.535Z,100579.38
2023-08-17T00:33:27.212Z,100578.10
2023-08-17T00:35:53.835Z,100574.84
2023-08-17T00:38:20.698Z,100571.41
2023-08-17T00:40:48.003Z,100569.52
2023-08-17T00:43:15.015Z,100569.83
2023-08-17T00:45:42.619Z,100573.48
2023-08-17T00:48:10.709Z,100577.19
2023-08-17T00:50:38.992Z,100580.27
2023-08-17T00:53:05.872Z,100582.91
2023-08-17T00:55:34.458Z,100585.73
2023-08-17T00:58:01.761Z,100590.05
2023-08-17T01:00:28.815Z,100584.81
2023-08-17T01:02:56.598Z,100586.10
2023-08-17T01:05:25.021Z,100588.44
2023-08-17T01:07:51.769Z,100588.30
2023-08-17T01:10:19.135Z,100593.48
2023-08-17T01:13:12.169Z,100599.13
2023-08-17T01:15:43.536Z,100598.11
2023-08-17T01:18:27.798Z,100596.77
2023-08-17T01:20:55.680Z,100596.95
2023-08-17T01:23:23.850Z,100597.68
2023-08-17T01:25:50.605Z,100598.41
2023-08-17T01:28:17.300Z,100598.88
2023-08-17T01:30:56.182Z,100596.25
2023-08-17T01:33:49.408Z,100594.62
2023-08-17T01:36:23.907Z,100589.34
2023-08-17T01:38:53.532Z,100587.52
2023-08-17T01:41:23.743Z,100588.45
2023-08-17T01:43:51.206Z,100586.44
2023-08-17T01:46:19.060Z,100587.70
2023-08-17T01:48:46.619Z,100589.84
2023-08-17T01:51:19.997Z,100594.23
2023-08-17T01:53:47.296Z,100604.40
2023-08-17T01:56:14.301Z,100601.90
2023-08-17T01:58:40.986Z,100599.91
2023-08-17T02:01:07.812Z,100596.38
2023-08-17T02:03:34.541Z,100592.48
2023-08-17T02:06:01.752Z,100593.91
2023-08-17T02:08:28.492Z,100592.31
2023-08-17T02:10:55.091Z,100591.46
2023-08-17T02:13:22.020Z,100592.80
2023-08-17T02:19:00.598Z,100591.28
2023-08-17T02:21:27.267Z,100593.60
2023-08-17T02:23:53.894Z,100587.86
2023-08-17T02:26:21.956Z,100585.39
2023-08-17T02:28:48.651Z,100587.70
2023-08-17T02:31:15.278Z,100590.11
2023-08-17T02:33:41.977Z,100591.46
2023-08-17T02:36:08.665Z,100592.38
2023-08-17T02:38:35.255Z,100590.88
2023-08-17T02:41:01.878Z,100589.36
2023-08-17T02:43:28.822Z,100590.92
2023-08-17T02:45:55.513Z,100597.45
2023-08-17T02:48:22.135Z,100606.59
2023-08-17T02:50:48.783Z,100606.53
2023-08-17T02:53:15.404Z,100602.98
2023-08-17T02:55:42.357Z,100603.73
2023-08-17T02:58:08.978Z,100607.55
2023-08-17T03:00:35.655Z,100610.48
2023-08-17T03:03:02.384Z,100610.96
2023-08-17T03:05:29.049Z,100618.76
2023-08-17T03:07:55.710Z,100624.38
2023-08-17T03:10:22.312Z,100626.17
2023-08-17T03:12:50.776Z,100627.62
2023-08-17T03:15:17.992Z,100629.02
2023-08-17T03:17:45.474Z,100626.63
2023-08-17T03:20:12.343Z,100624.96
2023-08-17T03:22:39.029Z,100623.52
2023-08-17T03:25:06.724Z,100627.50
2023-08-17T03:27:33.885Z,100634.11
2023-08-17T03:30:01.268Z,100630.93
2023-08-17T03:32:28.236Z,100629.74
2023-08-17T03:34:54.891Z,100632.27
2023-08-17T03:37:22.190Z,100633.95
2023-08-17T03:39:48.867Z,100634.50
2023-08-17T03:42:15.758Z,100636.00
2023-08-17T03:44:42.392Z,100631.29
2023-08-17T03:47:09.010Z,100634.84
2023-08-17T03:49:35.700Z,100638.01
2023-08-17T03:52:02.318Z,100640.94
2023-08-17T03:54:29.023Z,100639.34
2023-08-17T03:56:55.712Z,100639.73
2023-08-17T03:59:22.480Z,100638.91
2023-08-17T04:01:49.169Z,100641.12
2023-08-17T04:04:15.886Z,100645.95
2023-08-17T04:06:42.836Z,100648.98
2023-08-17T04:09:09.470Z,100645.59
2023-08-17T04:11:37.804Z,100642.64
2023-08-17T04:14:05.024Z,100641.66
2023-08-17T04:16:33.440Z,100645.70
2023-08-17T04:19:00.583Z,100649.97
2023-08-17T04:21:27.571Z,100652.40
2023-08-17T04:23:54.447Z,100654.27
2023-08-17T04:26:21.802Z,100652.15
2023-08-17T04:28:48.508Z,100648.42
2023-08-17T04:31:15.691Z,100651.09
2023-08-17T04:33:42.466Z,100659.65
2023-08-17T04:36:09.140Z,100667.27
2023-08-17T04:38:35.788Z,100672.36
2023-08-17T04:41:02.642Z,100667.42
2023-08-17T04:43:29.291Z,100665.66
2023-08-17T04:45:56.091Z,100662.65
2023-08-17T04:48:22.792Z,100661.53
2023-08-17T04:50:50.547Z,100663.79
2023-08-17T04:53:17.424Z,100664.66
2023-08-17T04:55:44.189Z,100666.34
2023-08-17T04:58:11.630Z,100664.83
2023-08-17T05:00:38.801Z,100664.81
2023-08-17T05:03:06.916Z,100664.95
2023-08-17T05:05:38.678Z,100662.80
2023-08-17T05:08:07.289Z,100659.59
2023-08-17T05:10:34.041Z,100658.15
2023-08-17T05:13:00.728Z,100662.22
2023-08-17T05:15:29.045Z,100662.96
2023-08-17T05:17:57.508Z,100666.07
2023-08-17T05:20:24.490Z,100663.99
2023-08-17T05:22:51.171Z,100661.72
2023-08-17T05:25:18.386Z,100659.05
2023-08-17T05:27:45.187Z,100657.09
2023-08-17T05:30:12.217Z,100659.63
2023-08-17T05:32:38.865Z,100659.95
2023-08-17T05:35:07.489Z,100661.34
2023-08-17T05:37:34.175Z,100659.34
2023-08-17T05:40:00.863Z,100653.54
2023-08-17T05:42:27.530Z,100654.50
2023-08-17T05:44:54.310Z,100651.78
2023-08-17T05:47:23.025Z,100654.17
2023-08-17T05:49:49.722Z,100652.20
2023-08-17T05:52:16.413Z,100651.36
2023-08-17T05:54:43.869Z,100651.37
2023-08-17T05:57:11.800Z,100646.38
2023-08-17T05:59:38.576Z,100642.75
2023-08-17T06:02:05.411Z,100640.60
2023-08-17T06:04:32.158Z,100640.15
2023-08-17T06:06:58.835Z,100641.30
2023-08-17T06:09:25.623Z,100641.16
2023-08-17T06:11:52.224Z,100646.29
2023-08-17T06:14:18.922Z,100652.64
2023-08-17T06:16:45.649Z,100656.16
2023-08-17T06:19:12.417Z,100657.27
2023-08-17T06:21:39.070Z,100653.61
2023-08-17T06:24:06.085Z,100654.52
2023-08-17T06:26:32.858Z,100660.52
2023-08-17T06:29:00.025Z,100662.02
2023-08-17T06:31:28.674Z,100665.38
2023-08-17T06:33:55.804Z,100664.36
2023-08-17T06:36:22.719Z,100666.71
2023-08-17T06:38:49.507Z,100666.61
2023-08-17T06:41:17.317Z,100669.02
2023-08-17T06:43:43.934Z,100670.55
2023-08-17T06:46:10.734Z,100670.02
2023-08-17T06:48:37.419Z,100668.27
2023-08-17T06:51:05.890Z,100670.74
2023-08-17T06:53:32.649Z,100671.27
2023-08-17T06:56:02.462Z,100669.27
2023-08-17T06:58:29.681Z,100668.78
2023-08-17T07:00:56.872Z,100665.52
2023-08-17T07:03:23.840Z,100668.11
2023-08-17T07:05:50.659Z,100670.05
2023-08-17T07:08:18.094Z,100668.98
2023-08-17T07:10:47.563Z,100670.38
2023-08-17T07:13:14.272Z,100668.17
2023-08-17T07:15:41.251Z,100670.75
2023-08-17T07:18:08.004Z,100674.66
2023-08-17T07:20:34.791Z,100671.38
2023-08-17T07:23:01.481Z,100673.33
2023-08-17T07:25:28.182Z,100673.85
2023-08-17T07:27:54.885Z,100671.23
2023-08-17T07:30:21.534Z,100673.94
2023-08-17T07:32:48.312Z,100671.36
2023-08-17T07:35:15.083Z,100669.79
2023-08-17T07:37:42.393Z,100665.08
2023-08-17T07:40:10.989Z,100666.58
2023-08-17T07:42:38.398Z,100666.44
2023-08-17T07:45:07.408Z,100668.86
2023-08-17T07:47:40.192Z,100668.49
2023-08-17T07:50:08.043Z,100670.34
2023-08-17T07:52:34.784Z,100671.75
2023-08-17T07:55:01.668Z,100674.10
2023-08-17T07:57:28.766Z,100672.41
2023-08-17T07:59:55.896Z,100667.33
2023-08-17T08:02:22.944Z,100669.02
2023-08-17T08:04:49.600Z,100674.41
2023-08-17T08:07:16.244Z,100679.98
2023-08-17T08:09:42.896Z,100683.14
2023-08-17T08:12:09.826Z,100686.73
2023-08-17T08:14:36.863Z,100685.99
2023-08-17T08:17:03.570Z,100685.46
2023-08-17T08:19:30.273Z,100680.98
2023-08-17T08:21:56.916Z,100681.08
2023-08-17T08:24:36.612Z,100677.30
2023-08-17T08:27:05.100Z,100674.83
2023-08-17T08:29:31.753Z,100672.80
2023-08-17T08:32:00.738Z,100668.95
2023-08-17T08:34:27.454Z,100674.41
2023-08-17T08:36:54.138Z,100675.09
2023-08-17T08:39:20.793Z,100673.46
2023-08-17T08:41:47.463Z,100671.69
2023-08-17T08:44:14.254Z,100675.70
2023-08-17T08:46:43.208Z,100676.65
2023-08-17T08:49:11.477Z,100672.28
2023-08-17T08:51:52.176Z,100670.93
2023-08-17T08:54:23.469Z,100669.21
2023-08-17T08:56:57.060Z,100670.88
2023-08-17T08:59:24.892Z,100670.05
2023-08-17T09:01:52.032Z,100672.23
2023-08-17T09:04:18.905Z,100674.41
2023-08-17T09:06:47.237Z,100671.84
2023-08-17T09:09:17.732Z,100669.34
2023-08-17T09:11:45.435Z,100668.94
2023-08-17T09:14:12.297Z,100669.81
2023-08-17T09:16:39.048Z,100668.55
2023-08-17T09:19:08.899Z,100668.64
2023-08-17T09:21:35.648Z,100666.29
2023-08-17T09:24:02.551Z,100673.20
2023-08-17T09:26:33.812Z,100672.53
2023-08-17T09:29:01.235Z,100676.24
2023-08-17T09:31:31.599Z,100676.66
2023-08-17T09:33:58.302Z,100677.13
2023-08-17T09:36:28.690Z,100676.58
2023-08-17T09:38:58.520Z,100677.27
2023-08-17T09:41:27.678Z,100670.88
2023-08-17T09:43:56.321Z,100674.01
2023-08-17T09:46:23.192Z,100675.02
2023-08-17T09:48:49.936Z,100668.77
2023-08-17T09:51:17.457Z,100667.33
2023-08-17T09:53:44.261Z,100666.05
2023-08-17T09:58:43.555Z,100651.31
2023-08-17T10:01:11.403Z,100656.53
2023-08-17T10:03:43.353Z,100654.46
2023-08-17T10:06:13.312Z,100650.67
2023-08-17T10:08:45.476Z,100652.59
2023-08-17T10:11:16.000Z,100647.20
2023-08-17T10:14:04.024Z,100645.64
2023-08-17T10:16:37.673Z,100642.78
2023-08-17T10:19:14.102Z,100646.06
2023-08-17T10:21:47.866Z,100646.74
2023-08-17T10:24:15.352Z,100645.40
2023-08-17T10:26:43.429Z,100641.91
2023-08-17T10:29:15.343Z,100642.12
2023-08-17T10:31:48.714Z,100639.74
2023-08-17T10:34:17.067Z,100642.56
2023-08-17T10:36:44.201Z,100639.06
2023-08-17T10:39:29.141Z,100634.39
2023-08-17T10:41:58.178Z,100634.37
2023-08-17T10:44:51.701Z,100628.79
2023-08-17T10:47:27.738Z,100627.89
2023-08-17T10:50:21.129Z,100624.36
2023-08-17T10:52:51.485Z,100627.61
2023-08-17T10:55:38.081Z,100630.07
2023-08-17T10:58:15.284Z,100623.45
2023-08-17T11:00:46.173Z,100621.65
2023-08-17T11:03:29.985Z,100621.88
2023-08-17T11:06:00.101Z,100626.24
2023-08-17T11:08:42.593Z,100624.91
2023-08-17T11:11:15.731Z,100618.30
2023-08-17T11:13:49.320Z,100616.67
2023-08-17T11:16:23.533Z,100619.92
2023-08-17T11:18:52.751Z,100619.61
2023-08-17T11:21:22.439Z,100611.83
2023-08-17T11:23:52.396Z,100608.15
2023-08-17T11:26:23.504Z,100608.79
2023-08-17T11:28:51.967Z,100611.02
2023-08-17T11:31:22.444Z,100616.80
2023-08-17T11:33:55.814Z,100613.36
2023-08-17T11:36:26.271Z,100615.52
2023-08-17T11:38:55.785Z,100617.97
2023-08-17T11:41:25.404Z,100619.48
2023-08-17T11:43:55.906Z,100618.60
2023-08-17T11:46:29.078Z,100617.23
2023-08-17T11:49:02.480Z,100619.20
2023-08-17T11:51:43.125Z,100615.38
2023-08-17T12:01:51.207Z,100619.14
2023-08-17T12:04:18.199Z,100620.87
2023-08-17T12:06:48.786Z,100618.91
2023-08-17T12:09:15.652Z,100617.92
2023-08-17T12:11:42.718Z,100615.95
2023-08-17T12:14:12.121Z,100611.97
2023-08-17T12:16:49.825Z,100616.11
2023-08-17T12:19:21.929Z,100613.60
2023-08-17T12:21:52.333Z,100611.56
2023-08-17T12:24:20.860Z,100611.01
2023-08-17T12:26:48.190Z,100610.73
2023-08-17T12:29:15.438Z,100612.64
2023-08-17T12:31:42.257Z,100611.42
2023-08-17T12:34:09.077Z,100615.95
2023-08-17T12:36:36.821Z,100612.09
2023-08-17T12:39:05.602Z,100606.27
2023-08-17T12:41:32.584Z,100601.11
2023-08-17T12:44:00.333Z,100601.56
2023-08-17T12:46:32.547Z,100599.98
2023-08-17T12:49:00.444Z,100602.33
2023-08-17T12:51:27.461Z,100601.72
2023-08-17T12:53:54.108Z,100596.55
2023-08-17T12:56:20.880Z,100593.49
2023-08-17T12:58:47.739Z,100593.95
2023-08-17T13:01:15.291Z,100593.40
2023-08-17T13:03:42.103Z,100597.55
2023-08-17T13:06:09.321Z,100598.30
2023-08-17T13:08:36.036Z,100594.70
2023-08-17T13:11:02.664Z,100594.45
2023-08-17T13:13:29.338Z,100591.10
2023-08-17T13:15:56.091Z,100590.88
2023-08-17T13:18:22.931Z,100588.74
2023-08-17T13:20:49.549Z,100587.29
2023-08-17T13:23:16.217Z,100586.96
2023-08-17T13:25:43.678Z,100584.50
2023-08-17T13:28:10.341Z,100585.35
2023-08-17T13:30:36.958Z,100585.67
2023-08-17T13:33:03.975Z,100583.38
2023-08-17T13:35:30.777Z,100582.45
2023-08-17T13:37:58.769Z,100582.39
2023-08-17T13:40:25.963Z,100581.51
2023-08-17T13:42:52.589Z,100582.65
2023-08-17T13:45:19.222Z,100582.54
2023-08-17T13:47:47.664Z,100577.43
2023-08-17T13:50:14.326Z,100577.02
2023-08-17T13:52:40.938Z,100575.40
2023-08-17T13:55:07.986Z,100574.66
2023-08-17T13:57:34.944Z,100570.64
2023-08-17T14:00:01.658Z,100574.06
2023-08-17T14:02:30.787Z,100574.99
2023-08-17T14:04:58.171Z,100571.09
2023-08-17T14:07:24.837Z,100572.48
2023-08-17T14:10:05.586Z,100573.23
2023-08-17T14:12:35.120Z,100571.74
2023-08-17T14:15:01.908Z,100569.77
2023-08-17T14:17:28.550Z,100568.98
2023-08-17T14:19:56.086Z,100563.20
2023-08-17T14:22:22.744Z,100558.80
2023-08-17T14:24:49.759Z,100556.98
2023-08-17T14:27:16.369Z,100550.02
2023-08-17T14:29:48.034Z,100546.42
2023-08-17T14:32:15.315Z,100548.77
2023-08-17T14:34:41.955Z,100543.34
2023-08-17T14:37:08.568Z,100542.56
2023-08-17T14:39:37.568Z,100536.23
2023-08-17T14:42:06.109Z,100538.16
2023-08-17T14:44:35.555Z,100534.13
2023-08-17T14:47:02.270Z,100530.50
2023-08-17T14:49:28.887Z,100531.35
2023-08-17T14:51:55.744Z,100531.52
2023-08-17T14:54:22.418Z,100528.95
2023-08-17T14:56:49.145Z,100528.46
2023-08-17T14:59:15.811Z,100531.13
2023-08-17T15:01:42.459Z,100530.86
2023-08-17T15:04:09.101Z,100530.83
2023-08-17T15:06:41.895Z,100532.05
2023-08-17T15:09:09.011Z,100536.23
2023-08-17T15:11:37.050Z,100532.81
2023-08-17T15:14:03.825Z,100530.38
2023-08-17T15:16:30.481Z,100530.30
2023-08-17T15:18:57.267Z,100525.98
2023-08-17T15:21:23.945Z,100529.23
2023-08-17T15:23:50.711Z,100532.14
2023-08-17T15:26:17.470Z,100529.39
2023-08-17T15:28:44.517Z,100529.15
2023-08-17T15:31:14.303Z,100530.89
2023-08-17T15:33:41.648Z,100530.77
2023-08-17T15:36:08.557Z,100525.98
2023-08-17T15:38:35.483Z,100524.89
2023-08-17T15:41:02.162Z,100526.48
2023-08-17T15:43:28.837Z,100523.69
2023-08-17T15:45:55.609Z,100524.31
2023-08-17T15:48:22.333Z,100526.60
2023-08-17T15:50:49.028Z,100523.55
2023-08-17T15:53:15.709Z,100519.02
2023-08-17T15:55:42.392Z,100521.02
2023-08-17T15:58:10.839Z,100529.11
2023-08-17T16:00:37.895Z,100536.95
2023-08-17T16:03:05.107Z,100540.40
2023-08-17T16:05:32.522Z,100543.61
2023-08-17T16:07:59.476Z,100546.91
2023-08-17T16:10:27.047Z,100551.13
2023-08-17T16:12:53.704Z,100549.27
2023-08-17T16:15:20.328Z,100551.24
2023-08-17T16:17:47.087Z,100551.87
2023-08-17T16:20:13.796Z,100553.00
2023-08-17T16:22:40.597Z,100551.78
2023-08-17T16:25:08.370Z,100554.78
2023-08-17T16:27:38.803Z,100558.00
2023-08-17T16:30:06.988Z,100557.37
2023-08-17T16:32:33.675Z,100559.09
2023-08-17T16:35:00.507Z,100558.44
2023-08-17T16:37:27.309Z,100560.91
2023-08-17T16:39:54.265Z,100561.83
2023-08-17T16:42:20.952Z,100560.41
2023-08-17T16:44:47.564Z,100559.67
2023-08-17T16:47:19.911Z,100556.50
2023-08-17T16:49:46.918Z,100554.60
2023-08-17T16:52:13.584Z,100553.05
2023-08-17T16:54:40.364Z,100553.55
2023-08-17T16:57:07.055Z,100555.56
2023-08-17T16:59:33.677Z,100556.29
2023-08-17T17:02:00.445Z,100555.88
2023-08-17T17:04:27.157Z,100554.60
2023-08-17T17:06:53.832Z,100549.60
2023-08-17T17:09:21.140Z,100551.75
2023-08-17T17:11:47.894Z,100552.67
2023-08-17T17:14:14.515Z,100553.89
2023-08-17T17:16:41.183Z,100554.64
2023-08-17T17:19:07.770Z,100558.73
2023-08-17T17:21:34.641Z,100566.15
2023-08-17T17:24:01.274Z,100564.36
2023-08-17T17:26:28.055Z,100565.31
2023-08-17T17:28:54.636Z,100562.91
2023-08-17T17:31:21.334Z,100558.58
2023-08-17T17:33:48.059Z,100559.63
2023-08-17T17:36:14.685Z,100554.75
2023-08-17T17:38:41.409Z,100555.91
2023-08-17T17:41:08.113Z,100560.95
2023-08-17T17:43:34.715Z,100559.93
2023-08-17T17:46:01.376Z,100556.72
2023-08-17T17:48:30.464Z,100554.00
2023-08-17T17:50:57.166Z,100558.34
2023-08-17T17:53:23.866Z,100558.91
2023-08-17T17:55:50.543Z,100556.27
2023-08-17T17:58:17.185Z,100552.20
2023-08-17T18:00:44.095Z,100554.37
2023-08-17T18:03:14.877Z,100553.89
2023-08-17T18:05:46.620Z,100550.73
2023-08-17T18:08:13.678Z,100552.65
2023-08-17T18:10:42.002Z,100553.61
2023-08-17T18:13:09.585Z,100555.34
2023-08-17T18:15:39.375Z,100556.27
2023-08-17T18:18:06.949Z,100558.08
2023-08-17T18:20:34.153Z,100555.22
2023-08-17T18:23:00.866Z,100553.98
2023-08-17T18:25:28.159Z,100557.42
2023-08-17T18:27:55.012Z,100556.81
2023-08-17T18:30:23.215Z,100560.77
2023-08-17T18:32:50.962Z,100561.07
2023-08-17T18:35:18.941Z,100561.48
2023-08-17T18:37:46.991Z,100559.64
2023-08-17T18:40:13.750Z,100562.06
2023-08-17T18:42:40.647Z,100556.29
2023-08-17T18:45:08.325Z,100553.45
2023-08-17T18:47:35.394Z,100549.87
2023-08-17T18:50:02.364Z,100547.48
2023-08-17T18:52:29.008Z,100547.29
2023-08-17T18:55:03.990Z,100544.73
2023-08-17T18:57:33.650Z,100542.98
2023-08-17T19:00:02.667Z,100540.95
2023-08-17T19:02:29.429Z,100538.14
2023-08-17T19:05:01.201Z,100537.76
2023-08-17T19:07:29.365Z,100538.55
2023-08-17T19:09:56.276Z,100540.95
2023-08-17T19:12:23.051Z,100538.94
2023-08-17T19:14:52.841Z,100538.92
2023-08-17T19:17:19.634Z,100540.50
2023-08-17T19:19:46.431Z,100541.02
2023-08-17T19:22:13.121Z,100542.44
2023-08-17T19:24:40.003Z,100542.23
2023-08-17T19:27:06.689Z,100540.03
2023-08-17T19:29:33.488Z,100541.36
2023-08-17T19:32:00.284Z,100545.17
2023-08-17T19:34:26.954Z,100546.69
2023-08-17T19:36:53.636Z,100545.15
2023-08-17T19:39:20.339Z,100548.53
2023-08-17T19:41:48.572Z,100548.61
2023-08-17T19:44:15.708Z,100547.20
2023-08-17T19:46:42.317Z,100543.77
2023-08-17T19:49:09.488Z,100546.40
2023-08-17T19:51:36.185Z,100551.16
2023-08-17T19:54:02.876Z,100551.35
2023-08-17T19:56:29.821Z,100563.36
2023-08-17T19:58:56.499Z,100569.69
2023-08-17T20:01:23.814Z,100569.39
2023-08-17T20:03:52.791Z,100573.16
2023-08-17T20:06:19.524Z,100572.91
2023-08-17T20:08:46.795Z,100571.50
2023-08-17T20:11:13.541Z,100576.09
2023-08-17T20:13:40.201Z,100574.96
2023-08-17T20:16:07.020Z,100580.05
2023-08-17T20:18:34.096Z,100582.19
2023-08-17T20:21:03.288Z,100581.55
2023-08-17T20:23:30.711Z,100582.91
2023-08-17T20:25:57.758Z,100579.73
2023-08-17T20:28:27.565Z,100580.65
2023-08-17T20:31:00.519Z,100585.48
2023-08-17T20:33:28.068Z,100587.77
2023-08-17T20:35:56.253Z,100593.55
2023-08-17T20:38:24.555Z,100596.52
2023-08-17T20:40:52.649Z,100596.98
2023-08-17T20:43:19.983Z,100598.56
2023-08-17T20:45:46.851Z,100598.52
2023-08-17T20:48:13.822Z,100600.02
2023-08-17T20:50:41.899Z,100601.35
2023-08-17T20:53:09.334Z,100598.35
2023-08-17T20:55:41.462Z,100597.19
2023-08-17T20:58:08.941Z,100598.97
2023-08-17T21:00:36.967Z,100598.27
2023-08-17T21:03:07.626Z,100591.92
2023-08-17T21:05:34.629Z,100593.39
2023-08-17T21:08:02.815Z,100592.16
2023-08-17T21:10:30.247Z,100590.05
2023-08-17T21:13:00.004Z,100593.02
2023-08-17T21:15:26.886Z,100587.97
2023-08-17T21:17:53.740Z,100584.83
2023-08-17T21:20:20.740Z,100587.88
2023-08-17T21:22:52.508Z,100599.98
2023-08-17T21:25:20.196Z,100600.14
2023-08-17T21:27:47.870Z,100599.99
2023-08-17T21:30:16.774Z,100605.10
2023-08-17T21:32:43.989Z,100613.16
2023-08-17T21:35:12.674Z,100619.63
2023-08-17T21:37:42.087Z,100621.73
2023-08-17T21:40:09.657Z,100623.02
2023-08-17T21:42:36.405Z,100615.91
2023-08-17T21:45:03.731Z,100617.94
2023-08-17T21:47:30.832Z,100619.01
2023-08-17T21:49:57.770Z,100616.05
2023-08-17T21:52:24.719Z,100612.67
2023-08-17T21:54:51.701Z,100606.15
2023-08-17T21:57:18.851Z,100611.86
2023-08-17T21:59:45.538Z,100609.80
2023-08-17T22:02:12.197Z,100606.86
2023-08-17T22:04:38.850Z,100601.59
2023-08-17T22:07:05.581Z,100596.87
2023-08-17T22:09:34.650Z,100597.42
2023-08-17T22:12:02.369Z,100599.61
2023-08-17T22:14:32.436Z,100600.13
2023-08-17T22:16:59.481Z,100592.92
2023-08-17T22:19:27.100Z,100592.59
2023-08-17T22:21:54.707Z,100591.59
2023-08-17T22:24:21.492Z,100595.83
2023-08-17T22:26:48.540Z,100601.71
2023-08-17T22:29:15.427Z,100603.02
2023-08-17T22:31:44.314Z,100600.09
2023-08-17T22:34:11.936Z,100592.31
2023-08-17T22:36:38.990Z,100590.17
2023-08-17T22:39:06.706Z,100593.21
2023-08-17T22:41:33.805Z,100592.83
2023-08-17T22:44:00.673Z,100600.33
2023-08-17T22:46:27.488Z,100602.44
2023-08-17T22:48:54.238Z,100603.02
2023-08-17T22:51:20.939Z,100598.40
2023-08-17T22:53:47.673Z,100594.04
2023-08-17T22:56:14.405Z,100595.09
2023-08-17T22:58:41.008Z,100597.66
2023-08-17T23:01:08.762Z,100594.35
2023-08-17T23:03:35.957Z,100598.95
2023-08-17T23:06:02.933Z,100606.02
2023-08-17T23:08:30.288Z,100620.70
2023-08-17T23:11:03.924Z,100631.11
2023-08-17T23:13:30.652Z,100637.56
2023-08-17T23:15:57.418Z,100636.05
2023-08-17T23:18:24.095Z,100631.08
2023-08-17T23:20:51.027Z,100621.68
2023-08-17T23:23:18.952Z,100619.45
2023-08-17T23:25:45.712Z,100617.29
2023-08-17T23:28:12.543Z,100619.96
2023-08-17T23:30:40.666Z,100624.33
2023-08-17T23:33:07.431Z,100629.67
2023-08-17T23:35:35.106Z,100624.51
2023-08-17T23:38:01.722Z,100627.84
2023-08-17T23:40:28.356Z,100608.54
2023-08-17T23:42:54.995Z,100605.59
2023-08-17T23:45:21.656Z,100603.06
2023-08-17T23:47:48.314Z,100611.17
2023-08-17T23:50:15.273Z,100631.48
2023-08-17T23:52:42.134Z,100653.73
2023-08-17T23:55:09.054Z,100654.28
2023-08-17T23:57:35.795Z,100683.60
